Decoded Metar for PAFA (FAIRBANKS in AK, USA) (IATA:FAI) | Meteo·Mobile Aviation Weather
aviador You're here:

PAFA Decoded Metar

FAIRBANKS in AK, USA
Report Time2019-03-23 15:53:00
UTC Time2019-03-23 16:21:46
Flight Rules vfr VFR
Wind060° at 05 kt
W.Decomp.*RWY 02: 4.7 kt HW 1.6 kt RCW
W.Rank060° ranks 8
Current wind is below 060° avg. (5.1)
Visibility9999 m
Phenomena:N/A
Clouds:Few 060 Hf
Scattered 080 Hf
Scattered 140 Hf
Expected CloudBase > 2,400 ft AGL from Temp-Dew spread
CeilingNone
Temp-1°C (ISA -15)
Dew Point-7°C (64% RH)
AAT-5.6°C
QNH1004 hPa
Density Alt-1,060 ft
Elevation433 ft
Report Wrong Elevation
Raw Report
PAFA 231553Z 06005KT 10SM FEW060 SCT080 SCT140 M01/M07 A2966=

Extra information for PAFA:More info

Metar Taf Metar & Taf Last 4 Metars F.Rules Stats Wind Profile Meteogram Temp Stats Airport Information Weather charts Add Link Nearby VenuesMetar ALERT Operation Metar Decoded Social comments

AIRNAV info for PAFA